sensor_id;sensor_type;location;lat;lon;timestamp;temperature;humidity
4279;DHT22;2153;47.744;10.580;2022-12-18T00:02:09;-6.60;99.90
4279;DHT22;2153;47.744;10.580;2022-12-18T00:04:35;-6.60;99.90
4279;DHT22;2153;47.744;10.580;2022-12-18T00:07:02;-6.60;99.90
4279;DHT22;2153;47.744;10.580;2022-12-18T00:09:30;-6.50;99.90
4279;DHT22;2153;47.744;10.580;2022-12-18T00:11:57;-6.50;99.90
4279;DHT22;2153;47.744;10.580;2022-12-18T00:14:24;-6.50;99.90
4279;DHT22;2153;47.744;10.580;2022-12-18T00:16:51;-6.60;99.90
4279;DHT22;2153;47.744;10.580;2022-12-18T00:19:17;-6.60;99.90
4279;DHT22;2153;47.744;10.580;2022-12-18T00:21:45;-6.60;99.90
4279;DHT22;2153;47.744;10.580;2022-12-18T00:24:12;-6.60;99.90
4279;DHT22;2153;47.744;10.580;2022-12-18T00:26:40;-6.60;99.90
4279;DHT22;2153;47.744;10.580;2022-12-18T00:29:09;-6.70;99.90
4279;DHT22;2153;47.744;10.580;2022-12-18T00:31:39;-6.60;99.90
4279;DHT22;2153;47.744;10.580;2022-12-18T00:34:06;-6.60;99.90
4279;DHT22;2153;47.744;10.580;2022-12-18T00:36:34;-6.60;99.90
4279;DHT22;2153;47.744;10.580;2022-12-18T00:39:03;-6.60;99.90
4279;DHT22;2153;47.744;10.580;2022-12-18T00:41:30;-6.70;99.90
4279;DHT22;2153;47.744;10.580;2022-12-18T00:44:17;-6.70;99.90
4279;DHT22;2153;47.744;10.580;2022-12-18T00:46:45;-6.80;99.90
4279;DHT22;2153;47.744;10.580;2022-12-18T00:49:12;-6.70;99.90
4279;DHT22;2153;47.744;10.580;2022-12-18T00:51:39;-6.60;99.90
4279;DHT22;2153;47.744;10.580;2022-12-18T00:54:06;-6.70;99.90
4279;DHT22;2153;47.744;10.580;2022-12-18T00:56:35;-6.70;99.90
4279;DHT22;2153;47.744;10.580;2022-12-18T00:59:02;-6.80;99.90
4279;DHT22;2153;47.744;10.580;2022-12-18T01:01:30;-6.80;99.90
4279;DHT22;2153;47.744;10.580;2022-12-18T01:03:58;-6.80;99.90
4279;DHT22;2153;47.744;10.580;2022-12-18T01:06:25;-6.80;99.90
4279;DHT22;2153;47.744;10.580;2022-12-18T01:08:52;-6.70;99.90
4279;DHT22;2153;47.744;10.580;2022-12-18T01:11:20;-6.80;99.90
4279;DHT22;2153;47.744;10.580;2022-12-18T01:13:47;-6.80;99.90
4279;DHT22;2153;47.744;10.580;2022-12-18T01:16:15;-6.80;99.90
4279;DHT22;2153;47.744;10.580;2022-12-18T01:18:44;-6.70;99.90
4279;DHT22;2153;47.744;10.580;2022-12-18T01:21:14;-6.80;99.90
4279;DHT22;2153;47.744;10.580;2022-12-18T01:23:41;-6.80;99.90
4279;DHT22;2153;47.744;10.580;2022-12-18T01:26:09;-6.90;99.90
4279;DHT22;2153;47.744;10.580;2022-12-18T01:28:37;-7.00;99.90
4279;DHT22;2153;47.744;10.580;2022-12-18T01:31:12;-6.90;99.90
4279;DHT22;2153;47.744;10.580;2022-12-18T01:33:39;-6.90;99.90
4279;DHT22;2153;47.744;10.580;2022-12-18T01:36:08;-6.90;99.90
4279;DHT22;2153;47.744;10.580;2022-12-18T01:38:40;-7.00;99.90
4279;DHT22;2153;47.744;10.580;2022-12-18T01:41:08;-7.00;99.90
4279;DHT22;2153;47.744;10.580;2022-12-18T01:43:47;-7.00;99.90
4279;DHT22;2153;47.744;10.580;2022-12-18T01:46:15;-7.00;99.90
4279;DHT22;2153;47.744;10.580;2022-12-18T01:48:42;-7.10;99.90
4279;DHT22;2153;47.744;10.580;2022-12-18T01:51:11;-7.00;99.90
4279;DHT22;2153;47.744;10.580;2022-12-18T01:53:40;-7.00;99.90
4279;DHT22;2153;47.744;10.580;2022-12-18T01:56:10;-7.00;99.90
4279;DHT22;2153;47.744;10.580;2022-12-18T01:58:44;-7.00;99.90
4279;DHT22;2153;47.744;10.580;2022-12-18T02:01:12;-6.90;99.90
4279;DHT22;2153;47.744;10.580;2022-12-18T02:03:41;-6.90;99.90
4279;DHT22;2153;47.744;10.580;2022-12-18T02:06:14;-6.90;99.90
4279;DHT22;2153;47.744;10.580;2022-12-18T02:08:48;-7.00;99.90
4279;DHT22;2153;47.744;10.580;2022-12-18T02:11:23;-7.10;99.90
4279;DHT22;2153;47.744;10.580;2022-12-18T02:13:56;-7.10;99.90
4279;DHT22;2153;47.744;10.580;2022-12-18T02:16:34;-7.20;99.90
4279;DHT22;2153;47.744;10.580;2022-12-18T02:19:16;-7.20;99.90
4279;DHT22;2153;47.744;10.580;2022-12-18T02:21:53;-7.30;99.90
4279;DHT22;2153;47.744;10.580;2022-12-18T02:24:29;-7.30;99.90
4279;DHT22;2153;47.744;10.580;2022-12-18T02:27:03;-7.30;99.90
4279;DHT22;2153;47.744;10.580;2022-12-18T02:29:34;-7.30;99.90
4279;DHT22;2153;47.744;10.580;2022-12-18T02:32:04;-7.40;99.90
4279;DHT22;2153;47.744;10.580;2022-12-18T02:34:34;-7.40;99.90
4279;DHT22;2153;47.744;10.580;2022-12-18T02:37:05;-7.40;99.90
4279;DHT22;2153;47.744;10.580;2022-12-18T02:39:36;-7.40;99.90
4279;DHT22;2153;47.744;10.580;2022-12-18T02:42:05;-7.30;99.90
4279;DHT22;2153;47.744;10.580;2022-12-18T02:44:33;-7.20;99.90
4279;DHT22;2153;47.744;10.580;2022-12-18T02:47:00;-7.20;99.90
4279;DHT22;2153;47.744;10.580;2022-12-18T02:49:36;-7.20;99.90
4279;DHT22;2153;47.744;10.580;2022-12-18T02:52:13;-7.40;99.90
4279;DHT22;2153;47.744;10.580;2022-12-18T02:54:52;-7.40;99.90
4279;DHT22;2153;47.744;10.580;2022-12-18T02:57:31;-7.40;99.90
4279;DHT22;2153;47.744;10.580;2022-12-18T03:00:04;-7.30;99.90
4279;DHT22;2153;47.744;10.580;2022-12-18T03:02:37;-7.30;99.90
4279;DHT22;2153;47.744;10.580;2022-12-18T03:05:10;-7.50;99.90
4279;DHT22;2153;47.744;10.580;2022-12-18T03:07:42;-7.50;99.90
4279;DHT22;2153;47.744;10.580;2022-12-18T03:10:13;-7.50;99.90
4279;DHT22;2153;47.744;10.580;2022-12-18T03:12:44;-7.50;99.90
4279;DHT22;2153;47.744;10.580;2022-12-18T03:15:17;-7.60;99.90
4279;DHT22;2153;47.744;10.580;2022-12-18T03:17:48;-7.60;99.90
4279;DHT22;2153;47.744;10.580;2022-12-18T03:20:20;-7.60;99.90
4279;DHT22;2153;47.744;10.580;2022-12-18T03:22:52;-7.60;99.90
4279;DHT22;2153;47.744;10.580;2022-12-18T03:25:20;-7.70;99.90
4279;DHT22;2153;47.744;10.580;2022-12-18T03:27:53;-7.60;99.90
4279;DHT22;2153;47.744;10.580;2022-12-18T03:30:23;-7.80;99.90
4279;DHT22;2153;47.744;10.580;2022-12-18T03:32:56;-8.00;99.90
4279;DHT22;2153;47.744;10.580;2022-12-18T03:35:28;-8.10;99.90
4279;DHT22;2153;47.744;10.580;2022-12-18T03:37:56;-8.20;99.90
4279;DHT22;2153;47.744;10.580;2022-12-18T03:40:31;-8.20;99.90
4279;DHT22;2153;47.744;10.580;2022-12-18T03:43:06;-8.20;99.90
4279;DHT22;2153;47.744;10.580;2022-12-18T03:45:36;-8.10;99.90
4279;DHT22;2153;47.744;10.580;2022-12-18T03:48:07;-8.00;99.90
4279;DHT22;2153;47.744;10.580;2022-12-18T03:50:39;-7.90;99.90
4279;DHT22;2153;47.744;10.580;2022-12-18T03:53:21;-7.90;99.90
4279;DHT22;2153;47.744;10.580;2022-12-18T03:55:51;-8.00;99.90
4279;DHT22;2153;47.744;10.580;2022-12-18T03:58:24;-7.90;99.90
4279;DHT22;2153;47.744;10.580;2022-12-18T04:00:53;-8.00;99.90
4279;DHT22;2153;47.744;10.580;2022-12-18T04:03:23;-8.10;99.90
4279;DHT22;2153;47.744;10.580;2022-12-18T04:05:51;-8.20;99.90
4279;DHT22;2153;47.744;10.580;2022-12-18T04:08:19;-8.20;99.90
4279;DHT22;2153;47.744;10.580;2022-12-18T04:10:47;-8.10;99.90
4279;DHT22;2153;47.744;10.580;2022-12-18T04:13:23;-8.10;99.90
4279;DHT22;2153;47.744;10.580;2022-12-18T04:15:50;-8.10;99.90
4279;DHT22;2153;47.744;10.580;2022-12-18T04:18:18;-8.10;99.90
4279;DHT22;2153;47.744;10.580;2022-12-18T04:20:45;-8.10;99.90
4279;DHT22;2153;47.744;10.580;2022-12-18T04:23:12;-8.00;99.90
4279;DHT22;2153;47.744;10.580;2022-12-18T04:25:39;-8.00;99.90
4279;DHT22;2153;47.744;10.580;2022-12-18T04:28:05;-7.90;99.90
4279;DHT22;2153;47.744;10.580;2022-12-18T04:30:34;-8.00;99.90
4279;DHT22;2153;47.744;10.580;2022-12-18T04:33:00;-8.00;99.90
4279;DHT22;2153;47.744;10.580;2022-12-18T04:35:27;-7.90;99.90
4279;DHT22;2153;47.744;10.580;2022-12-18T04:37:54;-7.90;99.90
4279;DHT22;2153;47.744;10.580;2022-12-18T04:40:21;-8.00;99.90
4279;DHT22;2153;47.744;10.580;2022-12-18T04:42:48;-8.00;99.90
4279;DHT22;2153;47.744;10.580;2022-12-18T04:45:15;-8.00;99.90
4279;DHT22;2153;47.744;10.580;2022-12-18T04:47:43;-8.00;99.90
4279;DHT22;2153;47.744;10.580;2022-12-18T04:50:10;-8.00;99.90
4279;DHT22;2153;47.744;10.580;2022-12-18T04:52:36;-8.00;99.90
4279;DHT22;2153;47.744;10.580;2022-12-18T04:55:04;-8.10;99.90
4279;DHT22;2153;47.744;10.580;2022-12-18T04:57:31;-8.10;99.90
4279;DHT22;2153;47.744;10.580;2022-12-18T04:59:58;-8.00;99.90
4279;DHT22;2153;47.744;10.580;2022-12-18T05:02:24;-8.10;99.90
4279;DHT22;2153;47.744;10.580;2022-12-18T05:04:52;-8.00;99.90
4279;DHT22;2153;47.744;10.580;2022-12-18T05:07:19;-8.00;99.90
4279;DHT22;2153;47.744;10.580;2022-12-18T05:09:46;-7.90;99.90
4279;DHT22;2153;47.744;10.580;2022-12-18T05:12:13;-7.80;99.90
4279;DHT22;2153;47.744;10.580;2022-12-18T05:14:40;-7.80;99.90
4279;DHT22;2153;47.744;10.580;2022-12-18T05:17:06;-7.80;99.90
4279;DHT22;2153;47.744;10.580;2022-12-18T05:19:33;-7.80;99.90
4279;DHT22;2153;47.744;10.580;2022-12-18T05:22:01;-7.90;99.90
4279;DHT22;2153;47.744;10.580;2022-12-18T05:24:28;-7.80;99.90
4279;DHT22;2153;47.744;10.580;2022-12-18T05:26:56;-7.80;99.90
4279;DHT22;2153;47.744;10.580;2022-12-18T05:29:23;-7.80;99.90
4279;DHT22;2153;47.744;10.580;2022-12-18T05:31:50;-7.80;99.90
4279;DHT22;2153;47.744;10.580;2022-12-18T05:34:16;-7.80;99.90
4279;DHT22;2153;47.744;10.580;2022-12-18T05:36:43;-7.80;99.90
4279;DHT22;2153;47.744;10.580;2022-12-18T05:39:11;-7.80;99.90
4279;DHT22;2153;47.744;10.580;2022-12-18T05:41:38;-7.80;99.90
4279;DHT22;2153;47.744;10.580;2022-12-18T05:44:05;-7.90;99.90
4279;DHT22;2153;47.744;10.580;2022-12-18T05:46:32;-7.90;99.90
4279;DHT22;2153;47.744;10.580;2022-12-18T05:48:59;-8.00;99.90
4279;DHT22;2153;47.744;10.580;2022-12-18T05:51:26;-8.00;99.90
4279;DHT22;2153;47.744;10.580;2022-12-18T05:53:53;-8.00;99.90
4279;DHT22;2153;47.744;10.580;2022-12-18T05:56:22;-8.00;99.90
4279;DHT22;2153;47.744;10.580;2022-12-18T05:58:51;-8.00;99.90
4279;DHT22;2153;47.744;10.580;2022-12-18T06:01:21;-8.00;99.90
4279;DHT22;2153;47.744;10.580;2022-12-18T06:03:48;-8.00;99.90
4279;DHT22;2153;47.744;10.580;2022-12-18T06:06:17;-8.00;99.90
4279;DHT22;2153;47.744;10.580;2022-12-18T06:08:44;-8.10;99.90
4279;DHT22;2153;47.744;10.580;2022-12-18T06:11:11;-8.10;99.90
4279;DHT22;2153;47.744;10.580;2022-12-18T06:13:39;-8.10;99.90
4279;DHT22;2153;47.744;10.580;2022-12-18T06:16:06;-8.20;99.90
4279;DHT22;2153;47.744;10.580;2022-12-18T06:18:34;-8.20;99.90
4279;DHT22;2153;47.744;10.580;2022-12-18T06:21:01;-8.20;99.90
4279;DHT22;2153;47.744;10.580;2022-12-18T06:23:28;-8.20;99.90
4279;DHT22;2153;47.744;10.580;2022-12-18T06:25:55;-8.20;99.90
4279;DHT22;2153;47.744;10.580;2022-12-18T06:28:22;-8.20;99.90
4279;DHT22;2153;47.744;10.580;2022-12-18T06:30:50;-8.20;99.90
4279;DHT22;2153;47.744;10.580;2022-12-18T06:33:18;-8.30;99.90
4279;DHT22;2153;47.744;10.580;2022-12-18T06:35:45;-8.30;99.90
4279;DHT22;2153;47.744;10.580;2022-12-18T06:38:12;-8.40;99.90
4279;DHT22;2153;47.744;10.580;2022-12-18T06:40:38;-8.40;99.90
4279;DHT22;2153;47.744;10.580;2022-12-18T06:43:06;-8.40;99.90
4279;DHT22;2153;47.744;10.580;2022-12-18T06:45:33;-8.50;99.90
4279;DHT22;2153;47.744;10.580;2022-12-18T06:48:01;-8.50;99.90
4279;DHT22;2153;47.744;10.580;2022-12-18T06:50:28;-8.60;99.90
4279;DHT22;2153;47.744;10.580;2022-12-18T06:52:55;-8.70;99.90
4279;DHT22;2153;47.744;10.580;2022-12-18T06:55:22;-8.70;99.90
4279;DHT22;2153;47.744;10.580;2022-12-18T06:57:48;-8.70;99.90
4279;DHT22;2153;47.744;10.580;2022-12-18T07:00:15;-8.80;99.90
4279;DHT22;2153;47.744;10.580;2022-12-18T07:02:42;-8.80;99.90
4279;DHT22;2153;47.744;10.580;2022-12-18T07:05:10;-8.80;99.90
4279;DHT22;2153;47.744;10.580;2022-12-18T07:07:37;-8.80;99.90
4279;DHT22;2153;47.744;10.580;2022-12-18T07:10:05;-8.80;99.90
4279;DHT22;2153;47.744;10.580;2022-12-18T07:12:31;-8.80;99.90
4279;DHT22;2153;47.744;10.580;2022-12-18T07:14:58;-8.80;99.90
4279;DHT22;2153;47.744;10.580;2022-12-18T07:17:25;-8.80;99.90
4279;DHT22;2153;47.744;10.580;2022-12-18T07:19:52;-8.80;99.90
4279;DHT22;2153;47.744;10.580;2022-12-18T07:22:20;-8.80;99.90
4279;DHT22;2153;47.744;10.580;2022-12-18T07:24:47;-8.80;99.90
4279;DHT22;2153;47.744;10.580;2022-12-18T07:27:14;-8.70;99.90
4279;DHT22;2153;47.744;10.580;2022-12-18T07:29:41;-8.70;99.90
4279;DHT22;2153;47.744;10.580;2022-12-18T07:32:08;-8.60;99.90
4279;DHT22;2153;47.744;10.580;2022-12-18T07:34:34;-8.60;99.90
4279;DHT22;2153;47.744;10.580;2022-12-18T07:37:01;-8.60;99.90
4279;DHT22;2153;47.744;10.580;2022-12-18T07:39:29;-8.50;99.90
4279;DHT22;2153;47.744;10.580;2022-12-18T07:41:56;-8.50;99.90
4279;DHT22;2153;47.744;10.580;2022-12-18T07:44:41;-8.50;99.90
4279;DHT22;2153;47.744;10.580;2022-12-18T07:47:07;-8.40;99.90
4279;DHT22;2153;47.744;10.580;2022-12-18T07:49:34;-8.40;99.90
4279;DHT22;2153;47.744;10.580;2022-12-18T07:52:02;-8.40;99.90
4279;DHT22;2153;47.744;10.580;2022-12-18T07:54:30;-8.30;99.90
4279;DHT22;2153;47.744;10.580;2022-12-18T07:56:57;-8.30;99.90
4279;DHT22;2153;47.744;10.580;2022-12-18T07:59:23;-8.20;99.90
4279;DHT22;2153;47.744;10.580;2022-12-18T08:01:50;-8.20;99.90
4279;DHT22;2153;47.744;10.580;2022-12-18T08:04:17;-8.20;99.90
4279;DHT22;2153;47.744;10.580;2022-12-18T08:06:44;-8.20;99.90
4279;DHT22;2153;47.744;10.580;2022-12-18T08:09:11;-8.10;99.90
4279;DHT22;2153;47.744;10.580;2022-12-18T08:11:39;-8.10;99.90
4279;DHT22;2153;47.744;10.580;2022-12-18T08:14:06;-8.10;99.90
4279;DHT22;2153;47.744;10.580;2022-12-18T08:16:33;-7.90;99.90
4279;DHT22;2153;47.744;10.580;2022-12-18T08:18:59;-7.90;99.90
4279;DHT22;2153;47.744;10.580;2022-12-18T08:21:29;-7.80;99.90
4279;DHT22;2153;47.744;10.580;2022-12-18T08:23:58;-7.80;99.90
4279;DHT22;2153;47.744;10.580;2022-12-18T08:26:26;-7.70;99.90
4279;DHT22;2153;47.744;10.580;2022-12-18T08:28:55;-7.60;99.90
4279;DHT22;2153;47.744;10.580;2022-12-18T08:31:23;-7.60;99.90
4279;DHT22;2153;47.744;10.580;2022-12-18T08:33:52;-7.60;99.90
4279;DHT22;2153;47.744;10.580;2022-12-18T08:36:19;-7.60;99.90
4279;DHT22;2153;47.744;10.580;2022-12-18T08:38:46;-7.50;99.90
4279;DHT22;2153;47.744;10.580;2022-12-18T08:41:15;-7.40;99.90
4279;DHT22;2153;47.744;10.580;2022-12-18T08:43:42;-7.50;99.90
4279;DHT22;2153;47.744;10.580;2022-12-18T08:46:34;-7.40;99.90
4279;DHT22;2153;47.744;10.580;2022-12-18T08:49:02;-7.40;99.90
4279;DHT22;2153;47.744;10.580;2022-12-18T08:51:29;-7.30;99.90
4279;DHT22;2153;47.744;10.580;2022-12-18T08:53:56;-7.30;99.90
4279;DHT22;2153;47.744;10.580;2022-12-18T08:56:23;-7.20;99.90
4279;DHT22;2153;47.744;10.580;2022-12-18T08:58:51;-7.10;99.90
4279;DHT22;2153;47.744;10.580;2022-12-18T09:01:18;-7.00;99.90
4279;DHT22;2153;47.744;10.580;2022-12-18T09:03:47;-6.90;99.90
4279;DHT22;2153;47.744;10.580;2022-12-18T09:06:14;-6.90;99.90
4279;DHT22;2153;47.744;10.580;2022-12-18T09:08:42;-6.80;99.90
4279;DHT22;2153;47.744;10.580;2022-12-18T09:11:12;-6.90;99.90
4279;DHT22;2153;47.744;10.580;2022-12-18T09:13:40;-6.80;99.90
4279;DHT22;2153;47.744;10.580;2022-12-18T09:16:06;-6.80;99.90
4279;DHT22;2153;47.744;10.580;2022-12-18T09:18:34;-6.60;99.90
4279;DHT22;2153;47.744;10.580;2022-12-18T09:21:09;-6.50;99.90
4279;DHT22;2153;47.744;10.580;2022-12-18T09:23:36;-6.40;99.90
4279;DHT22;2153;47.744;10.580;2022-12-18T09:26:03;-6.20;99.90
4279;DHT22;2153;47.744;10.580;2022-12-18T09:28:29;-6.00;99.90
4279;DHT22;2153;47.744;10.580;2022-12-18T09:30:56;-5.90;99.90
4279;DHT22;2153;47.744;10.580;2022-12-18T09:33:23;-5.70;99.90
4279;DHT22;2153;47.744;10.580;2022-12-18T09:35:50;-5.50;99.90
4279;DHT22;2153;47.744;10.580;2022-12-18T09:38:19;-5.50;99.90
4279;DHT22;2153;47.744;10.580;2022-12-18T09:40:48;-5.30;99.90
4279;DHT22;2153;47.744;10.580;2022-12-18T09:43:18;-5.20;99.90
4279;DHT22;2153;47.744;10.580;2022-12-18T09:45:49;-5.30;99.90
4279;DHT22;2153;47.744;10.580;2022-12-18T09:48:22;-5.10;99.90
4279;DHT22;2153;47.744;10.580;2022-12-18T09:50:50;-5.10;99.90
4279;DHT22;2153;47.744;10.580;2022-12-18T09:53:22;-5.10;99.90
4279;DHT22;2153;47.744;10.580;2022-12-18T09:55:51;-5.00;99.90
4279;DHT22;2153;47.744;10.580;2022-12-18T09:58:24;-4.90;99.90
4279;DHT22;2153;47.744;10.580;2022-12-18T10:00:53;-5.10;99.90
4279;DHT22;2153;47.744;10.580;2022-12-18T10:03:21;-5.20;99.90
4279;DHT22;2153;47.744;10.580;2022-12-18T10:05:58;-5.10;99.90
4279;DHT22;2153;47.744;10.580;2022-12-18T10:08:37;-5.60;99.90
4279;DHT22;2153;47.744;10.580;2022-12-18T10:11:21;-5.50;99.90
4279;DHT22;2153;47.744;10.580;2022-12-18T10:13:53;-5.50;99.90
4279;DHT22;2153;47.744;10.580;2022-12-18T10:16:27;-5.30;99.90
4279;DHT22;2153;47.744;10.580;2022-12-18T10:21:54;-5.30;99.90
4279;DHT22;2153;47.744;10.580;2022-12-18T10:24:27;-5.10;99.90
4279;DHT22;2153;47.744;10.580;2022-12-18T10:26:59;-5.00;99.90
4279;DHT22;2153;47.744;10.580;2022-12-18T10:29:31;-4.80;99.90
4279;DHT22;2153;47.744;10.580;2022-12-18T10:31:57;-4.40;99.90
4279;DHT22;2153;47.744;10.580;2022-12-18T10:34:24;-4.10;99.90
4279;DHT22;2153;47.744;10.580;2022-12-18T10:36:51;-3.70;99.90
4279;DHT22;2153;47.744;10.580;2022-12-18T10:39:20;-3.10;99.90
4279;DHT22;2153;47.744;10.580;2022-12-18T10:41:49;-2.80;99.90
4279;DHT22;2153;47.744;10.580;2022-12-18T10:44:20;-2.80;99.90
4279;DHT22;2153;47.744;10.580;2022-12-18T10:46:49;-2.80;99.90
4279;DHT22;2153;47.744;10.580;2022-12-18T10:49:22;-2.50;99.90
4279;DHT22;2153;47.744;10.580;2022-12-18T10:51:50;-2.30;99.90
4279;DHT22;2153;47.744;10.580;2022-12-18T10:54:19;-2.10;99.90
4279;DHT22;2153;47.744;10.580;2022-12-18T10:56:49;-2.00;99.90
4279;DHT22;2153;47.744;10.580;2022-12-18T10:59:17;-2.00;99.90
4279;DHT22;2153;47.744;10.580;2022-12-18T11:01:50;-1.70;99.90
4279;DHT22;2153;47.744;10.580;2022-12-18T11:04:20;-1.60;99.90
4279;DHT22;2153;47.744;10.580;2022-12-18T11:06:58;-1.50;99.90
4279;DHT22;2153;47.744;10.580;2022-12-18T11:09:27;-1.90;99.90
4279;DHT22;2153;47.744;10.580;2022-12-18T11:11:56;-1.70;99.90
4279;DHT22;2153;47.744;10.580;2022-12-18T11:14:28;-1.90;99.90
4279;DHT22;2153;47.744;10.580;2022-12-18T11:16:56;-1.80;99.90
4279;DHT22;2153;47.744;10.580;2022-12-18T11:19:30;-1.80;99.90
4279;DHT22;2153;47.744;10.580;2022-12-18T11:21:58;-1.70;99.90
4279;DHT22;2153;47.744;10.580;2022-12-18T11:24:30;-2.00;99.90
4279;DHT22;2153;47.744;10.580;2022-12-18T11:27:01;-1.40;99.90
4279;DHT22;2153;47.744;10.580;2022-12-18T11:29:32;-1.10;99.90
4279;DHT22;2153;47.744;10.580;2022-12-18T11:32:22;-1.30;99.90
4279;DHT22;2153;47.744;10.580;2022-12-18T11:34:53;-1.30;99.90
4279;DHT22;2153;47.744;10.580;2022-12-18T11:37:22;-1.40;99.90
4279;DHT22;2153;47.744;10.580;2022-12-18T11:39:52;-1.20;99.90
4279;DHT22;2153;47.744;10.580;2022-12-18T11:42:30;-1.30;99.90
4279;DHT22;2153;47.744;10.580;2022-12-18T11:45:02;-1.00;99.90
4279;DHT22;2153;47.744;10.580;2022-12-18T11:47:38;-1.00;99.90
4279;DHT22;2153;47.744;10.580;2022-12-18T11:50:14;-1.00;99.90
4279;DHT22;2153;47.744;10.580;2022-12-18T11:52:41;-1.20;99.90
4279;DHT22;2153;47.744;10.580;2022-12-18T11:55:12;-1.20;99.90
4279;DHT22;2153;47.744;10.580;2022-12-18T11:57:46;-1.20;99.90
4279;DHT22;2153;47.744;10.580;2022-12-18T12:00:19;-1.20;99.90
4279;DHT22;2153;47.744;10.580;2022-12-18T12:03:09;-1.10;99.90
4279;DHT22;2153;47.744;10.580;2022-12-18T12:05:46;-1.00;99.90
4279;DHT22;2153;47.744;10.580;2022-12-18T12:08:21;-1.00;99.90
4279;DHT22;2153;47.744;10.580;2022-12-18T12:10:59;-1.10;99.90
4279;DHT22;2153;47.744;10.580;2022-12-18T12:13:38;-1.10;99.90
4279;DHT22;2153;47.744;10.580;2022-12-18T12:16:14;-1.00;99.90
4279;DHT22;2153;47.744;10.580;2022-12-18T12:19:02;-1.00;99.90
4279;DHT22;2153;47.744;10.580;2022-12-18T12:21:37;-0.90;99.90
4279;DHT22;2153;47.744;10.580;2022-12-18T12:24:18;-0.90;99.90
4279;DHT22;2153;47.744;10.580;2022-12-18T12:26:52;-0.80;99.90
4279;DHT22;2153;47.744;10.580;2022-12-18T12:29:31;-0.70;99.90
4279;DHT22;2153;47.744;10.580;2022-12-18T12:32:11;-0.80;99.90
4279;DHT22;2153;47.744;10.580;2022-12-18T12:34:50;-1.20;99.90
4279;DHT22;2153;47.744;10.580;2022-12-18T12:37:28;-1.20;99.90
4279;DHT22;2153;47.744;10.580;2022-12-18T12:40:00;-1.10;99.90
4279;DHT22;2153;47.744;10.580;2022-12-18T12:42:32;-1.10;99.90
4279;DHT22;2153;47.744;10.580;2022-12-18T12:45:23;-1.00;99.90
4279;DHT22;2153;47.744;10.580;2022-12-18T12:47:53;-0.80;99.90
4279;DHT22;2153;47.744;10.580;2022-12-18T12:50:21;-0.80;99.90
4279;DHT22;2153;47.744;10.580;2022-12-18T12:52:51;-0.80;99.90
4279;DHT22;2153;47.744;10.580;2022-12-18T12:55:20;-0.90;99.90
4279;DHT22;2153;47.744;10.580;2022-12-18T12:57:54;-0.90;99.90
4279;DHT22;2153;47.744;10.580;2022-12-18T13:00:25;-0.90;99.90
4279;DHT22;2153;47.744;10.580;2022-12-18T13:03:01;-1.00;99.90
4279;DHT22;2153;47.744;10.580;2022-12-18T13:05:38;-1.20;99.90
4279;DHT22;2153;47.744;10.580;2022-12-18T13:08:09;-1.20;99.90
4279;DHT22;2153;47.744;10.580;2022-12-18T13:10:38;-1.50;99.90
4279;DHT22;2153;47.744;10.580;2022-12-18T13:13:07;-1.70;99.90
4279;DHT22;2153;47.744;10.580;2022-12-18T13:15:38;-1.70;99.90
4279;DHT22;2153;47.744;10.580;2022-12-18T13:18:12;-1.80;99.90
4279;DHT22;2153;47.744;10.580;2022-12-18T13:20:41;-2.00;99.90
4279;DHT22;2153;47.744;10.580;2022-12-18T13:23:33;-2.50;99.90
4279;DHT22;2153;47.744;10.580;2022-12-18T13:26:31;-2.40;99.90
4279;DHT22;2153;47.744;10.580;2022-12-18T13:28:59;-2.20;99.90
4279;DHT22;2153;47.744;10.580;2022-12-18T13:34:34;-2.00;99.90
4279;DHT22;2153;47.744;10.580;2022-12-18T13:37:40;-2.10;99.90
4279;DHT22;2153;47.744;10.580;2022-12-18T13:43:28;-2.20;99.90
4279;DHT22;2153;47.744;10.580;2022-12-18T13:48:50;-2.30;99.90
4279;DHT22;2153;47.744;10.580;2022-12-18T13:51:18;-2.40;99.90
4279;DHT22;2153;47.744;10.580;2022-12-18T13:53:50;-2.50;99.90
4279;DHT22;2153;47.744;10.580;2022-12-18T13:56:21;-2.50;99.90
4279;DHT22;2153;47.744;10.580;2022-12-18T14:01:47;-2.40;99.90
4279;DHT22;2153;47.744;10.580;2022-12-18T14:04:28;-2.50;99.90
4279;DHT22;2153;47.744;10.580;2022-12-18T14:07:00;-2.60;99.90
4279;DHT22;2153;47.744;10.580;2022-12-18T14:09:30;-2.70;99.90
4279;DHT22;2153;47.744;10.580;2022-12-18T14:11:57;-2.70;99.90
4279;DHT22;2153;47.744;10.580;2022-12-18T14:14:41;-2.70;99.90
4279;DHT22;2153;47.744;10.580;2022-12-18T14:17:10;-2.70;99.90
4279;DHT22;2153;47.744;10.580;2022-12-18T14:19:41;-2.80;99.90
4279;DHT22;2153;47.744;10.580;2022-12-18T14:22:15;-3.00;99.90
4279;DHT22;2153;47.744;10.580;2022-12-18T14:24:42;-3.10;99.90
4279;DHT22;2153;47.744;10.580;2022-12-18T14:27:23;-3.20;99.90
4279;DHT22;2153;47.744;10.580;2022-12-18T14:29:50;-3.20;99.90
4279;DHT22;2153;47.744;10.580;2022-12-18T14:32:19;-3.20;99.90
4279;DHT22;2153;47.744;10.580;2022-12-18T14:34:47;-3.30;99.90
4279;DHT22;2153;47.744;10.580;2022-12-18T14:37:16;-3.40;99.90
4279;DHT22;2153;47.744;10.580;2022-12-18T14:39:55;-3.40;99.90
4279;DHT22;2153;47.744;10.580;2022-12-18T14:42:23;-3.50;99.90
4279;DHT22;2153;47.744;10.580;2022-12-18T14:47:54;-3.70;99.90
4279;DHT22;2153;47.744;10.580;2022-12-18T14:50:21;-3.80;99.90
4279;DHT22;2153;47.744;10.580;2022-12-18T14:52:49;-3.80;99.90
4279;DHT22;2153;47.744;10.580;2022-12-18T14:55:16;-3.90;99.90
4279;DHT22;2153;47.744;10.580;2022-12-18T14:57:44;-4.00;99.90
4279;DHT22;2153;47.744;10.580;2022-12-18T15:00:17;-4.00;99.90
4279;DHT22;2153;47.744;10.580;2022-12-18T15:02:45;-4.10;99.90
4279;DHT22;2153;47.744;10.580;2022-12-18T15:05:20;-4.20;99.90
4279;DHT22;2153;47.744;10.580;2022-12-18T15:07:49;-4.30;99.90
4279;DHT22;2153;47.744;10.580;2022-12-18T15:10:18;-4.30;99.90
4279;DHT22;2153;47.744;10.580;2022-12-18T15:12:46;-4.40;99.90
4279;DHT22;2153;47.744;10.580;2022-12-18T15:15:44;-4.50;99.90
4279;DHT22;2153;47.744;10.580;2022-12-18T15:18:13;-4.60;99.90
4279;DHT22;2153;47.744;10.580;2022-12-18T15:20:45;-4.70;99.90
4279;DHT22;2153;47.744;10.580;2022-12-18T15:23:16;-4.90;99.90
4279;DHT22;2153;47.744;10.580;2022-12-18T15:25:44;-5.00;99.90
4279;DHT22;2153;47.744;10.580;2022-12-18T15:28:19;-5.10;99.90
4279;DHT22;2153;47.744;10.580;2022-12-18T15:31:21;-5.20;99.90
4279;DHT22;2153;47.744;10.580;2022-12-18T15:34:02;-5.40;99.90
4279;DHT22;2153;47.744;10.580;2022-12-18T15:36:33;-5.50;99.90
4279;DHT22;2153;47.744;10.580;2022-12-18T15:39:02;-5.60;99.90
4279;DHT22;2153;47.744;10.580;2022-12-18T15:41:31;-5.70;99.90
4279;DHT22;2153;47.744;10.580;2022-12-18T15:43:59;-5.80;99.90
4279;DHT22;2153;47.744;10.580;2022-12-18T15:46:25;-5.90;99.90
4279;DHT22;2153;47.744;10.580;2022-12-18T15:48:54;-5.90;99.90
4279;DHT22;2153;47.744;10.580;2022-12-18T15:51:23;-6.00;99.90
4279;DHT22;2153;47.744;10.580;2022-12-18T15:53:54;-6.00;99.90
4279;DHT22;2153;47.744;10.580;2022-12-18T15:56:22;-6.00;99.90
4279;DHT22;2153;47.744;10.580;2022-12-18T15:59:11;-6.20;99.90
4279;DHT22;2153;47.744;10.580;2022-12-18T16:01:39;-6.30;99.90
4279;DHT22;2153;47.744;10.580;2022-12-18T16:04:06;-6.30;99.90
4279;DHT22;2153;47.744;10.580;2022-12-18T16:06:33;-6.40;99.90
4279;DHT22;2153;47.744;10.580;2022-12-18T16:09:01;-6.40;99.90
4279;DHT22;2153;47.744;10.580;2022-12-18T16:11:29;-6.60;99.90
4279;DHT22;2153;47.744;10.580;2022-12-18T16:14:12;-6.70;99.90
4279;DHT22;2153;47.744;10.580;2022-12-18T16:16:42;-6.90;99.90
4279;DHT22;2153;47.744;10.580;2022-12-18T16:19:08;-6.90;99.90
4279;DHT22;2153;47.744;10.580;2022-12-18T16:21:35;-7.10;99.90
4279;DHT22;2153;47.744;10.580;2022-12-18T16:24:04;-7.30;99.90